Time;durP1;ratioP1;P1;durP2;ratioP2;P2;SDS_P1;SDS_P2;PMS_P1;PMS_P2;Temp;Humidity;BMP_temperature;BMP_pressure;BME280_temperature;BME280_humidity;BME280_pressure;Samples;Min_cycle;Max_cycle;Signal;HPM_P1;HPM_P2
2023/04/29 00:01:39;;;;;;;23.20;12.38;;;12.20;99.90;;;11.42;100.00;97026.53;4934460;29;20435;-75
2023/04/29 00:04:05;;;;;;;25.42;11.55;;;12.30;99.90;;;11.41;100.00;97019.66;4934302;29;20418;-74
2023/04/29 00:06:31;;;;;;;24.05;11.50;;;12.20;99.90;;;11.38;100.00;97018.31;4934253;29;20420;-75
2023/04/29 00:08:57;;;;;;;20.65;11.32;;;12.30;99.90;;;11.37;100.00;97022.00;4934323;29;20411;-75
2023/04/29 00:11:23;;;;;;;29.53;12.00;;;12.20;99.90;;;11.36;100.00;97011.66;4934258;29;20928;-75
2023/04/29 00:13:50;;;;;;;19.25;10.82;;;12.20;99.90;;;11.38;100.00;97018.31;4934277;29;20822;-75
2023/04/29 00:16:16;;;;;;;24.30;11.52;;;12.20;99.90;;;11.38;100.00;97015.66;4933527;29;20831;-74
2023/04/29 00:18:42;;;;;;;23.20;11.50;;;12.20;99.90;;;11.37;100.00;97021.22;4934156;29;20443;-75
2023/04/29 00:21:08;;;;;;;23.30;11.57;;;12.20;99.90;;;11.33;100.00;97014.88;4934097;29;20412;-75
2023/04/29 00:23:34;;;;;;;25.23;11.95;;;12.20;99.90;;;11.33;100.00;97017.53;4934153;29;20443;-74
2023/04/29 00:26:00;;;;;;;21.63;11.93;;;12.20;99.90;;;11.28;100.00;97012.22;4933766;29;20419;-75
2023/04/29 00:28:26;;;;;;;22.50;10.77;;;12.20;99.90;;;11.24;100.00;97017.25;4934117;29;20455;-75
2023/04/29 00:30:54;;;;;;;23.15;10.90;;;12.10;99.90;;;11.21;100.00;97018.56;4933992;29;20778;-75
2023/04/29 00:33:20;;;;;;;21.70;11.02;;;12.10;99.90;;;11.15;100.00;97018.81;4934173;29;20503;-75
2023/04/29 00:35:47;;;;;;;17.17;9.65;;;12.00;99.90;;;11.13;100.00;97012.97;4933740;29;20461;-75
2023/04/29 00:38:13;;;;;;;21.15;10.88;;;12.00;99.90;;;11.09;100.00;97010.06;4933971;29;20437;-75
2023/04/29 00:40:39;;;;;;;21.43;11.07;;;11.90;99.90;;;11.10;100.00;97014.31;4951500;23;20444;-74
2023/04/29 00:43:05;;;;;;;21.73;11.00;;;12.00;99.90;;;11.08;100.00;97015.63;4953015;28;20410;-75
2023/04/29 00:45:31;;;;;;;20.05;10.82;;;11.90;99.90;;;11.13;100.00;97012.97;4952575;28;20460;-76
2023/04/29 00:47:58;;;;;;;26.00;11.48;;;12.00;99.90;;;11.16;100.00;97015.13;4952912;28;20441;-75
2023/04/29 00:50:24;;;;;;;25.80;12.00;;;12.00;99.90;;;11.15;100.00;97014.31;4951482;29;20488;-74
2023/04/29 00:52:51;;;;;;;22.20;12.70;;;12.00;99.90;;;11.20;100.00;97018.84;4952737;28;20911;-75
2023/04/29 00:55:18;;;;;;;20.37;11.77;;;12.10;99.90;;;11.23;100.00;97018.31;4951456;28;20729;-74
2023/04/29 00:57:47;;;;;;;22.42;11.90;;;12.10;99.90;;;11.26;100.00;97028.38;4952799;28;20410;-75
2023/04/29 01:00:15;;;;;;;21.40;12.00;;;12.10;99.90;;;11.23;100.00;97029.69;4952625;28;20413;-75
2023/04/29 01:02:41;;;;;;;21.02;11.57;;;12.10;99.90;;;11.21;100.00;97026.50;4952557;28;20414;-74
2023/04/29 01:05:09;;;;;;;21.45;10.57;;;12.10;99.90;;;11.21;100.00;97025.72;4952304;28;20928;-74
2023/04/29 01:07:47;;;;;;;28.20;12.27;;;12.10;99.90;;;11.18;100.00;97023.59;4952687;28;20816;-74
2023/04/29 01:10:21;;;;;;;19.02;10.52;;;12.00;99.90;;;11.18;100.00;97024.41;4952483;28;20448;-74
2023/04/29 01:12:59;;;;;;;17.60;10.57;;;12.00;99.90;;;11.22;100.00;97022.00;4952631;28;20405;-74
2023/04/29 01:15:31;;;;;;;23.57;11.50;;;12.10;99.90;;;11.22;100.00;97024.66;4952409;28;20406;-75
2023/04/29 01:18:03;;;;;;;23.13;11.55;;;12.10;99.90;;;11.16;100.00;97038.94;4952597;28;20418;-74
2023/04/29 01:20:32;;;;;;;18.30;10.20;;;12.00;99.90;;;11.12;100.00;97022.00;4952312;28;20409;-74
2023/04/29 01:22:58;;;;;;;23.08;10.50;;;12.00;99.90;;;11.05;100.00;97022.25;4951008;28;20410;-74
2023/04/29 01:25:26;;;;;;;22.03;11.10;;;12.00;99.90;;;11.03;100.00;97037.63;4952095;28;20422;-74
2023/04/29 01:27:58;;;;;;;27.33;11.40;;;11.90;99.90;;;10.99;100.00;97031.25;4954130;28;20413;-74
2023/04/29 01:30:35;;;;;;;24.77;11.80;;;11.90;99.90;;;10.94;100.00;97028.59;4956381;28;20548;-74
2023/04/29 01:33:07;;;;;;;21.30;11.93;;;11.80;99.90;;;10.94;100.00;97027.78;4956470;28;20406;-74
2023/04/29 01:35:50;;;;;;;22.45;11.15;;;11.80;99.90;;;10.90;100.00;97038.09;4956241;28;20433;-74
2023/04/29 01:38:32;;;;;;;22.55;10.77;;;11.70;99.90;;;10.85;100.00;97036.25;4956290;28;20512;-74
2023/04/29 01:41:12;;;;;;;29.02;12.75;;;11.80;99.90;;;10.85;100.00;97030.16;4956078;28;20420;-74
2023/04/29 01:43:38;;;;;;;25.58;12.77;;;11.80;99.90;;;10.86;100.00;97031.75;4956235;28;20448;-75
2023/04/29 01:46:07;;;;;;;29.27;11.68;;;11.70;99.90;;;10.81;100.00;97029.09;4955889;28;20421;-74
2023/04/29 01:48:34;;;;;;;26.60;11.98;;;11.70;99.90;;;10.78;100.00;97029.59;4956081;29;20409;-74
2023/04/29 01:51:00;;;;;;;27.58;12.52;;;11.70;99.90;;;10.78;100.00;97024.31;4956161;28;20410;-74
2023/04/29 01:53:26;;;;;;;23.17;11.27;;;11.70;99.90;;;10.79;100.00;97032.00;4956400;28;20440;-74
2023/04/29 01:55:52;;;;;;;25.53;12.40;;;11.70;99.90;;;10.78;100.00;97026.97;4955939;28;20473;-74
2023/04/29 01:58:20;;;;;;;26.83;12.23;;;11.70;99.90;;;10.76;100.00;97026.41;4956304;28;20409;-75
2023/04/29 02:00:46;;;;;;;26.50;12.67;;;11.70;99.90;;;10.70;100.00;97024.81;4955893;28;20453;-75
2023/04/29 02:03:12;;;;;;;27.25;12.77;;;11.60;99.90;;;10.73;100.00;97029.59;4955821;28;20416;-75
2023/04/29 02:05:38;;;;;;;27.48;12.63;;;11.60;99.90;;;10.67;100.00;97030.63;4955492;28;20477;-75
2023/04/29 02:08:06;;;;;;;24.90;12.80;;;11.60;99.90;;;10.73;100.00;97021.66;4955716;28;20441;-74
2023/04/29 02:10:32;;;;;;;28.77;13.45;;;11.60;99.90;;;10.74;100.00;97024.06;4955651;28;20456;-75
2023/04/29 02:12:58;;;;;;;27.23;12.90;;;11.60;99.90;;;10.78;100.00;97021.66;4955620;28;20417;-75
2023/04/29 02:15:27;;;;;;;27.73;12.30;;;11.70;99.90;;;10.77;100.00;97028.00;4955419;28;20474;-75
2023/04/29 02:17:53;;;;;;;24.90;12.00;;;11.60;99.90;;;10.77;100.00;97031.44;4955532;28;20864;-75
2023/04/29 02:20:19;;;;;;;22.33;11.90;;;11.70;99.90;;;10.74;100.00;97032.00;4955470;28;20410;-75
2023/04/29 02:22:46;;;;;;;30.55;12.60;;;11.60;99.90;;;10.73;100.00;97026.94;4954112;28;20429;-75
2023/04/29 02:25:12;;;;;;;29.55;12.60;;;11.60;99.90;;;10.72;100.00;97042.03;4955299;28;20422;-75
2023/04/29 02:27:37;;;;;;;25.40;11.93;;;11.60;99.90;;;10.71;100.00;97035.16;4955419;28;20441;-75
2023/04/29 02:30:05;;;;;;;32.05;12.30;;;11.60;99.90;;;10.73;100.00;97033.03;4955421;28;20702;-75
2023/04/29 02:32:32;;;;;;;26.65;12.18;;;11.60;99.90;;;10.71;100.00;97034.34;4955282;28;20417;-75
2023/04/29 02:34:58;;;;;;;24.52;11.27;;;11.60;99.90;;;10.73;100.00;97026.94;4955162;28;20873;-75
2023/04/29 02:37:24;;;;;;;27.83;12.30;;;11.60;99.90;;;10.71;100.00;97031.69;4955190;28;20420;-75
2023/04/29 02:39:50;;;;;;;25.15;11.98;;;11.60;99.90;;;10.72;100.00;97036.75;4954714;28;20769;-75
2023/04/29 02:42:16;;;;;;;28.55;12.02;;;11.60;99.90;;;10.67;100.00;97031.44;4955092;28;20912;-75
2023/04/29 02:44:42;;;;;;;28.77;12.23;;;11.60;99.90;;;10.67;100.00;97035.94;4955114;28;20425;-74
2023/04/29 02:47:08;;;;;;;27.85;12.00;;;11.60;99.90;;;10.66;100.00;97037.00;4954968;28;20406;-74
2023/04/29 02:49:35;;;;;;;27.92;12.23;;;11.50;99.90;;;10.61;100.00;97035.09;4954926;28;20426;-74
2023/04/29 02:52:01;;;;;;;26.95;11.75;;;11.50;99.90;;;10.59;100.00;97031.94;4955032;28;20414;-74
2023/04/29 02:54:27;;;;;;;23.53;11.93;;;11.50;99.90;;;10.54;100.00;97033.75;4955021;28;20508;-74
2023/04/29 02:56:53;;;;;;;25.85;10.93;;;11.40;99.90;;;10.48;100.00;97028.44;4954743;28;20497;-74
2023/04/29 02:59:19;;;;;;;34.88;13.07;;;11.40;99.90;;;10.48;100.00;97032.94;4954867;28;20449;-74
2023/04/29 03:01:45;;;;;;;26.25;12.25;;;11.40;99.90;;;10.41;100.00;97037.69;4954736;28;20413;-74
2023/04/29 03:04:11;;;;;;;25.52;12.20;;;11.30;99.90;;;10.36;100.00;97041.09;4954742;28;20892;-74
2023/04/29 03:06:38;;;;;;;30.80;13.30;;;11.30;99.90;;;10.30;100.00;97044.75;4954445;28;21161;-74
2023/04/29 03:09:04;;;;;;;27.98;12.38;;;11.20;99.90;;;10.24;100.00;97037.84;4954724;28;20441;-74
2023/04/29 03:11:30;;;;;;;27.95;13.10;;;11.10;99.90;;;10.21;100.00;97040.22;4954528;28;20409;-74
2023/04/29 03:13:56;;;;;;;28.73;13.40;;;11.10;99.90;;;10.21;100.00;97043.69;4954527;28;20441;-75
2023/04/29 03:16:22;;;;;;;30.55;14.30;;;11.10;99.90;;;10.22;100.00;97036.53;4953050;28;20418;-74
2023/04/29 03:18:48;;;;;;;29.67;14.77;;;11.10;99.90;;;10.17;100.00;97039.94;4954504;28;20464;-74
2023/04/29 03:21:14;;;;;;;28.00;13.57;;;11.10;99.90;;;10.15;100.00;97039.34;4954220;28;20414;-74
2023/04/29 03:23:42;;;;;;;35.47;15.38;;;11.10;99.90;;;10.16;100.00;97040.16;4954381;28;20753;-74
2023/04/29 03:26:08;;;;;;;33.63;16.17;;;11.10;99.90;;;10.14;100.00;97035.16;4954047;28;20425;-74
2023/04/29 03:28:34;;;;;;;34.28;16.05;;;11.10;99.90;;;10.09;100.00;97043.03;4954250;28;20959;-74
2023/04/29 03:30:59;;;;;;;35.33;16.17;;;11.00;99.90;;;10.12;100.00;97039.09;4953874;28;20659;-74
2023/04/29 03:33:25;;;;;;;33.77;16.07;;;11.00;99.90;;;10.11;100.00;97033.00;4954172;28;20939;-74
2023/04/29 03:35:51;;;;;;;37.83;17.40;;;11.00;99.90;;;10.15;100.00;97033.28;4952554;29;20413;-74
2023/04/29 03:38:17;;;;;;;33.80;15.63;;;11.00;99.90;;;10.07;100.00;97034.56;4952836;28;20412;-74
2023/04/29 03:40:45;;;;;;;35.17;15.43;;;11.00;99.90;;;10.01;100.00;97020.50;4953849;28;20938;-74
2023/04/29 03:43:12;;;;;;;32.97;15.02;;;11.00;99.90;;;9.95;100.00;97021.53;4953832;28;20488;-74
2023/04/29 03:45:38;;;;;;;36.63;16.98;;;10.90;99.90;;;9.95;100.00;97018.91;4953646;28;20422;-74
2023/04/29 03:48:05;;;;;;;33.10;15.13;;;10.90;99.90;;;9.83;100.00;97023.59;4953897;28;20833;-74
2023/04/29 03:50:31;;;;;;;30.80;15.70;;;10.80;99.90;;;9.80;100.00;97024.09;4952903;28;20864;-74
2023/04/29 03:52:57;;;;;;;36.63;16.57;;;10.80;99.90;;;9.80;100.00;97024.09;4953792;28;20414;-74
2023/04/29 03:55:22;;;;;;;33.83;16.17;;;10.80;99.90;;;9.79;100.00;97014.56;4953672;28;20429;-75
2023/04/29 03:57:50;;;;;;;38.67;17.45;;;10.70;99.90;;;9.81;100.00;97022.25;4953791;28;20413;-74
2023/04/29 04:00:16;;;;;;;43.40;18.00;;;10.70;99.90;;;9.74;100.00;97027.75;4953668;28;20468;-74
2023/04/29 04:02:42;;;;;;;38.63;17.20;;;10.70;99.90;;;9.65;100.00;97022.13;4953659;28;20496;-74
2023/04/29 04:05:09;;;;;;;40.03;17.50;;;10.60;99.90;;;9.66;100.00;97030.88;4953271;28;20574;-75
2023/04/29 04:07:35;;;;;;;36.72;17.38;;;10.60;99.90;;;9.60;100.00;97035.31;4953603;28;20406;-74
2023/04/29 04:10:01;;;;;;;38.70;18.70;;;10.60;99.90;;;9.63;100.00;97028.72;4953384;28;20416;-74
2023/04/29 04:12:27;;;;;;;38.83;18.38;;;10.60;99.90;;;9.55;100.00;97029.19;4953408;28;20449;-74
2023/04/29 04:14:54;;;;;;;42.27;18.13;;;10.50;99.90;;;9.55;100.00;97032.63;4953255;28;20472;-74
2023/04/29 04:17:20;;;;;;;33.85;16.35;;;10.50;99.90;;;9.51;100.00;97041.31;4953181;28;20413;-74
2023/04/29 04:19:46;;;;;;;31.33;15.43;;;10.50;99.90;;;9.46;100.00;97042.09;4953398;28;20406;-74
2023/04/29 04:22:12;;;;;;;41.50;18.03;;;10.40;99.90;;;9.54;100.00;97057.47;4953154;28;20512;-74
2023/04/29 04:24:37;;;;;;;41.27;17.97;;;10.50;99.90;;;9.52;100.00;97064.03;4953069;28;20405;-74
2023/04/29 04:27:03;;;;;;;35.58;16.45;;;10.50;99.90;;;9.47;100.00;97058.72;4953033;28;20413;-74
2023/04/29 04:29:29;;;;;;;34.20;15.50;;;10.50;99.90;;;9.44;100.00;97059.22;4953108;28;20437;-74
2023/04/29 04:31:56;;;;;;;39.80;17.65;;;10.40;99.90;;;9.49;100.00;97061.91;4953003;28;20418;-74
2023/04/29 04:34:22;;;;;;;27.58;14.27;;;10.40;99.90;;;9.42;100.00;97067.41;4952975;28;20406;-74
2023/04/29 04:36:48;;;;;;;30.75;15.27;;;10.40;99.90;;;9.45;100.00;97068.75;4952721;28;20410;-74
2023/04/29 04:39:14;;;;;;;39.92;17.08;;;10.40;99.90;;;9.45;100.00;97080.13;4952828;28;20401;-74
2023/04/29 04:41:40;;;;;;;38.10;16.52;;;10.40;99.90;;;9.47;100.00;97080.63;4952613;28;20414;-74
2023/04/29 04:44:06;;;;;;;39.65;18.95;;;10.40;99.90;;;9.54;100.00;97075.97;4952792;28;20433;-74
2023/04/29 04:46:32;;;;;;;34.83;16.30;;;10.50;99.90;;;9.52;100.00;97077.25;4952551;28;20509;-74
2023/04/29 04:48:59;;;;;;;36.93;17.33;;;10.50;99.90;;;9.55;100.00;97085.47;4952667;28;20489;-74
2023/04/29 04:51:27;;;;;;;40.72;17.92;;;10.50;99.90;;;9.59;100.00;97083.94;4952615;28;20414;-74
2023/04/29 04:53:53;;;;;;;44.28;20.02;;;10.50;99.90;;;9.73;100.00;97092.22;4952746;28;20710;-74
2023/04/29 04:56:19;;;;;;;46.22;21.35;;;10.60;99.90;;;9.83;100.00;97094.16;4952457;28;20413;-75
2023/04/29 04:58:45;;;;;;;43.25;18.92;;;10.70;99.90;;;9.88;100.00;97096.84;4952708;28;20414;-74
2023/04/29 05:01:11;;;;;;;50.38;21.48;;;10.80;99.90;;;9.97;100.00;97095.31;4952436;28;20485;-74
2023/04/29 05:03:37;;;;;;;52.50;22.80;;;10.90;99.90;;;10.08;100.00;97095.13;4952713;28;20477;-75
2023/04/29 05:06:04;;;;;;;40.37;19.57;;;11.00;99.90;;;10.16;100.00;97107.06;4952422;28;20421;-74
2023/04/29 05:08:30;;;;;;;44.05;20.48;;;11.00;99.90;;;10.26;100.00;97109.03;4952536;29;20796;-74
2023/04/29 05:10:57;;;;;;;45.07;18.60;;;11.10;99.90;;;10.30;100.00;97108.25;4952446;28;20414;-74
2023/04/29 05:13:24;;;;;;;47.22;18.63;;;11.20;99.90;;;10.34;100.00;97119.13;4952503;28;20441;-74
2023/04/29 05:15:50;;;;;;;47.35;20.00;;;11.20;99.90;;;10.35;100.00;97123.38;4952231;28;20528;-74
2023/04/29 05:18:16;;;;;;;45.50;19.95;;;11.20;99.90;;;10.47;100.00;97121.31;4951982;28;20437;-74
2023/04/29 05:20:42;;;;;;;46.92;20.20;;;11.30;99.90;;;10.64;100.00;97131.72;4951215;28;20437;-75
2023/04/29 05:23:09;;;;;;;52.72;21.25;;;11.40;99.90;;;10.79;100.00;97127.31;4952362;28;20488;-74
2023/04/29 05:25:35;;;;;;;44.40;19.25;;;11.60;99.90;;;11.04;100.00;97136.41;4952149;28;20911;-75
2023/04/29 05:28:03;;;;;;;40.73;18.00;;;11.80;99.90;;;11.15;100.00;97140.69;4952359;28;20456;-75
2023/04/29 05:30:29;;;;;;;40.93;18.40;;;11.90;99.90;;;11.20;100.00;97141.47;4952309;28;20868;-74
2023/04/29 05:32:55;;;;;;;41.50;16.60;;;12.00;99.90;;;11.27;100.00;97143.13;4952027;28;20414;-75
2023/04/29 05:35:21;;;;;;;31.35;14.00;;;12.10;99.90;;;11.34;100.00;97148.97;4952402;28;20445;-75
2023/04/29 05:37:47;;;;;;;41.88;17.23;;;12.10;99.90;;;11.39;100.00;97147.09;4952473;28;20410;-75
2023/04/29 05:40:14;;;;;;;32.40;14.40;;;12.20;99.90;;;11.47;100.00;97145.81;4951945;28;20421;-75
2023/04/29 05:42:40;;;;;;;33.63;14.95;;;12.30;99.90;;;11.55;100.00;97150.59;4946154;28;20818;-76
2023/04/29 05:45:08;;;;;;;35.33;15.52;;;12.30;99.90;;;11.61;100.00;97150.34;4943570;28;20421;-76
2023/04/29 05:47:34;;;;;;;32.87;14.40;;;12.40;99.90;;;11.62;100.00;97149.28;4951832;28;20414;-74
2023/04/29 05:50:00;;;;;;;33.97;16.45;;;12.40;99.90;;;11.62;100.00;97151.13;4946622;28;20818;-75
2023/04/29 05:52:26;;;;;;;32.58;14.23;;;12.40;99.90;;;11.65;100.00;97163.88;4932823;29;20414;-74
2023/04/29 05:54:52;;;;;;;31.23;14.65;;;12.40;99.90;;;11.70;100.00;97166.53;4931249;29;20463;-75
2023/04/29 05:57:19;;;;;;;31.92;14.02;;;12.50;99.90;;;11.67;100.00;97175.00;4932651;29;20412;-75
2023/04/29 05:59:45;;;;;;;27.70;13.20;;;12.50;99.90;;;11.70;100.00;97173.69;4935879;29;20421;-75
2023/04/29 06:02:11;;;;;;;25.15;11.90;;;12.50;99.90;;;11.73;100.00;97184.53;4947825;29;20425;-75
2023/04/29 06:04:39;;;;;;;39.00;17.57;;;12.50;99.90;;;11.80;100.00;97184.34;4944198;28;20453;-76
2023/04/29 06:07:21;;;;;;;37.35;17.63;;;12.50;99.90;;;11.75;100.00;97181.66;4945407;28;20418;-75
2023/04/29 06:09:47;;;;;;;38.72;17.13;;;12.50;99.90;;;11.73;100.00;97191.72;4941132;28;20427;-75
2023/04/29 06:12:13;;;;;;;38.78;17.20;;;12.50;99.90;;;11.69;100.00;97199.41;4942072;29;20415;-75
2023/04/29 06:14:40;;;;;;;35.10;15.73;;;12.50;99.90;;;11.76;100.00;97197.31;4950957;28;20411;-75
2023/04/29 06:17:06;;;;;;;37.95;16.65;;;12.50;99.90;;;11.76;100.00;97197.31;4951773;29;20406;-75
2023/04/29 06:19:32;;;;;;;36.65;16.90;;;12.50;99.90;;;11.75;100.00;97194.91;4955761;28;20405;-75
2023/04/29 06:21:58;;;;;;;42.53;18.77;;;12.50;99.90;;;11.77;100.00;97204.22;4955952;29;20412;-74
2023/04/29 06:24:24;;;;;;;34.00;17.13;;;12.50;99.90;;;11.79;100.00;97206.59;4955815;28;21016;-75
2023/04/29 06:26:50;;;;;;;33.88;17.17;;;12.60;99.90;;;11.82;100.00;97211.38;4955435;28;20425;-75
2023/04/29 06:29:16;;;;;;;38.60;18.02;;;12.60;99.90;;;11.77;100.00;97220.13;4955801;28;20768;-75
2023/04/29 06:31:43;;;;;;;38.87;17.60;;;12.50;99.90;;;11.73;100.00;97213.72;4955505;28;20418;-75
2023/04/29 06:34:10;;;;;;;30.25;15.35;;;12.60;99.90;;;11.82;100.00;97220.13;4955570;28;20440;-75
2023/04/29 06:36:36;;;;;;;37.57;17.53;;;12.60;99.90;;;11.85;100.00;97222.25;4953707;28;20767;-75
2023/04/29 06:39:01;;;;;;;33.23;16.03;;;12.60;99.90;;;11.95;100.00;97221.50;4955389;28;20416;-75
2023/04/29 06:41:28;;;;;;;32.30;15.70;;;12.70;99.90;;;12.04;100.00;97222.53;4958113;23;20854;-73
2023/04/29 06:43:54;;;;;;;28.80;14.95;;;12.80;99.90;;;12.11;100.00;97236.34;4933052;29;20944;-73
2023/04/29 06:46:20;;;;;;;26.88;14.48;;;12.80;99.90;;;12.17;100.00;97237.97;4932715;29;20427;-72
2023/04/29 06:48:47;;;;;;;24.02;12.40;;;12.90;99.90;;;11.98;100.00;97245.63;4927192;29;20431;-73
2023/04/29 06:51:13;;;;;;;21.45;12.00;;;12.70;99.90;;;12.00;100.00;97243.50;4926360;29;20428;-76
2023/04/29 06:53:39;;;;;;;22.33;11.82;;;12.70;99.90;;;12.07;100.00;97242.44;4931554;29;20443;-75
2023/04/29 06:56:06;;;;;;;23.10;11.68;;;12.80;99.90;;;12.05;100.00;97247.22;4928700;29;20411;-75
2023/04/29 06:58:32;;;;;;;19.33;10.55;;;12.80;99.90;;;12.17;100.00;97251.22;4930857;29;20897;-75
2023/04/29 07:00:58;;;;;;;14.90;10.10;;;12.90;99.90;;;12.32;100.00;97251.25;4925979;29;20464;-75
2023/04/29 07:03:24;;;;;;;14.68;8.50;;;13.00;99.90;;;12.31;100.00;97252.31;4933773;29;20898;-73
2023/04/29 07:05:51;;;;;;;14.05;7.60;;;13.10;99.90;;;12.47;100.00;97252.31;4929848;29;20991;-73
2023/04/29 07:08:18;;;;;;;13.82;7.80;;;13.10;99.90;;;12.74;100.00;97250.94;4934608;29;20412;-75
2023/04/29 07:10:43;;;;;;;11.15;7.38;;;13.40;99.90;;;12.95;100.00;97253.56;4934994;29;20470;-73
2023/04/29 07:13:10;;;;;;;10.60;6.25;;;13.70;99.90;;;12.74;100.00;97252.81;4932654;29;20419;-75
2023/04/29 07:15:36;;;;;;;15.35;6.45;;;13.50;99.90;;;12.54;100.00;97255.47;4930114;29;20411;-76
2023/04/29 07:18:03;;;;;;;9.88;6.30;;;13.40;99.90;;;12.46;100.00;97261.31;4931741;29;20436;-77
2023/04/29 07:20:29;;;;;;;12.73;6.30;;;13.20;99.90;;;12.23;100.00;97274.06;4933023;29;20408;-74
2023/04/29 07:22:56;;;;;;;13.27;6.55;;;13.00;99.90;;;12.38;100.00;97260.78;4930534;29;20435;-75
2023/04/29 07:25:22;;;;;;;11.87;6.00;;;13.10;99.90;;;12.52;100.00;97260.25;4932303;29;20426;-75
2023/04/29 07:27:48;;;;;;;9.40;5.45;;;13.20;99.90;;;12.62;100.00;97263.72;4933418;29;20423;-75
2023/04/29 07:30:14;;;;;;;8.88;4.68;;;13.30;99.90;;;12.80;100.00;97263.16;4926031;29;20485;-75
2023/04/29 07:32:40;;;;;;;7.53;5.68;;;13.50;99.90;;;13.09;100.00;97271.31;4932581;29;20418;-75
2023/04/29 07:35:07;;;;;;;8.05;5.30;;;13.70;99.90;;;13.02;100.00;97270.00;4921964;29;20432;-75
2023/04/29 07:37:35;;;;;;;6.15;4.00;;;13.70;99.90;;;13.04;100.00;97270.56;4925046;29;20466;-75
2023/04/29 07:40:05;;;;;;;8.68;5.13;;;13.70;99.90;;;12.94;100.00;97266.03;4921146;29;20749;-74
2023/04/29 07:42:31;;;;;;;9.98;5.40;;;13.70;99.90;;;12.87;100.00;97273.50;4926839;29;20448;-75
2023/04/29 07:44:57;;;;;;;7.60;5.05;;;13.60;99.90;;;12.84;100.00;97274.06;4925434;29;20415;-74
2023/04/29 07:47:25;;;;;;;10.20;5.70;;;13.60;99.90;;;12.68;100.00;97275.13;4919944;28;21061;-75
2023/04/29 07:49:51;;;;;;;9.13;5.00;;;13.40;99.90;;;12.71;100.00;97275.38;4925121;29;20857;-75
2023/04/29 07:52:17;;;;;;;8.95;5.30;;;13.50;99.90;;;12.75;100.00;97276.44;4918718;28;20409;-75
2023/04/29 07:54:43;;;;;;;6.43;4.72;;;13.50;99.90;;;12.84;100.00;97273.25;4937100;29;20409;-74
2023/04/29 07:57:10;;;;;;;7.67;5.03;;;13.50;99.90;;;12.94;100.00;97284.66;4920932;29;20425;-75
2023/04/29 07:59:36;;;;;;;11.55;6.10;;;13.60;99.90;;;13.00;100.00;97285.44;4931876;29;20428;-76
2023/04/29 08:02:02;;;;;;;9.43;5.97;;;13.70;99.90;;;13.02;100.00;97285.97;4933201;29;20970;-76
2023/04/29 08:04:28;;;;;;;8.05;5.70;;;13.70;99.90;;;13.05;100.00;97283.56;4933853;29;20416;-75
2023/04/29 08:06:54;;;;;;;8.20;5.10;;;13.80;99.90;;;13.06;100.00;97285.16;4933260;29;20458;-75
2023/04/29 08:09:20;;;;;;;7.70;5.07;;;13.80;99.90;;;13.10;100.00;97286.22;4932946;29;20415;-75
2023/04/29 08:11:46;;;;;;;7.17;4.07;;;13.80;99.90;;;13.23;100.00;97298.16;4931884;29;20443;-75
2023/04/29 08:14:13;;;;;;;7.10;4.40;;;13.90;99.90;;;13.34;100.00;97289.09;4934084;29;20924;-75
2023/04/29 08:16:39;;;;;;;5.43;3.70;;;14.10;99.90;;;13.52;100.00;97287.72;4931746;29;20407;-76
2023/04/29 08:19:05;;;;;;;6.25;4.20;;;14.20;99.90;;;13.61;100.00;97288.72;4932359;29;20972;-76
2023/04/29 08:21:31;;;;;;;7.00;3.57;;;14.30;99.90;;;13.87;100.00;97302.72;4932898;29;20887;-77
2023/04/29 08:23:57;;;;;;;6.13;4.28;;;14.50;99.90;;;13.94;100.00;97300.56;4932380;29;20426;-77
2023/04/29 08:26:23;;;;;;;7.57;4.07;;;14.70;99.90;;;13.86;100.00;97295.81;4930937;29;20431;-77
2023/04/29 08:28:49;;;;;;;11.57;4.03;;;14.50;99.90;;;13.65;100.00;97299.63;4933177;29;20443;-77
2023/04/29 08:31:20;;;;;;;12.07;4.50;;;14.30;99.90;;;13.53;100.00;97303.38;4934361;28;20894;-76
2023/04/29 08:33:47;;;;;;;6.13;4.40;;;14.20;99.90;;;13.48;100.00;97299.97;4923965;29;20924;-76
2023/04/29 08:36:13;;;;;;;6.27;4.50;;;14.20;99.90;;;13.36;100.00;97299.47;4926402;29;20413;-76
2023/04/29 08:38:39;;;;;;;7.50;4.22;;;14.10;99.90;;;13.28;100.00;97308.00;4931623;29;20890;-76
2023/04/29 08:41:08;;;;;;;7.13;4.18;;;14.00;99.90;;;13.17;100.00;97315.19;4933531;29;20419;-76
2023/04/29 08:43:41;;;;;;;10.20;5.73;;;13.90;99.90;;;12.98;100.00;97312.28;4932372;29;20420;-77
2023/04/29 08:46:08;;;;;;;7.43;4.60;;;13.80;99.90;;;12.91;100.00;97314.41;4930415;29;20418;-77
2023/04/29 08:48:36;;;;;;;8.93;6.82;;;13.60;99.90;;;12.97;100.00;97309.88;4931512;29;20746;-77
2023/04/29 08:51:03;;;;;;;8.47;6.17;;;13.70;99.90;;;12.90;100.00;97306.72;4920199;29;20413;-78
2023/04/29 08:53:29;;;;;;;7.93;6.00;;;13.60;99.90;;;12.98;100.00;97314.13;4925649;29;20419;-78
2023/04/29 08:56:00;;;;;;;10.65;6.57;;;13.70;99.90;;;13.07;100.00;97316.00;4934759;29;20924;-78
2023/04/29 08:58:28;;;;;;;7.22;5.28;;;13.80;99.90;;;13.12;100.00;97321.28;4933343;29;20457;-77
2023/04/29 09:00:55;;;;;;;9.50;5.82;;;13.90;99.90;;;13.18;100.00;97325.56;4932580;29;20419;-77
2023/04/29 09:03:26;;;;;;;8.20;5.63;;;13.90;99.90;;;13.23;100.00;97318.66;4927515;29;20894;-76
2023/04/29 09:05:58;;;;;;;10.50;5.80;;;14.00;99.90;;;13.18;100.00;97322.91;4931268;29;20431;-78
2023/04/29 09:08:25;;;;;;;9.32;6.03;;;13.90;99.90;;;13.17;100.00;97321.31;4926439;29;20428;-77
2023/04/29 09:10:54;;;;;;;8.75;5.78;;;13.90;99.90;;;13.18;100.00;97319.44;4923577;29;20798;-76
2023/04/29 09:13:24;;;;;;;8.45;5.72;;;13.90;99.90;;;13.27;100.00;97322.34;4930544;29;20416;-77
2023/04/29 09:15:50;;;;;;;11.02;5.82;;;14.00;99.90;;;13.33;100.00;97324.72;4930092;29;20400;-76
2023/04/29 09:18:41;;;;;;;11.20;7.15;;;14.00;99.90;;;13.43;100.00;97326.56;4927270;29;20850;-77
2023/04/29 09:21:15;;;;;;;8.55;6.43;;;14.10;99.90;;;13.57;100.00;97317.75;4921417;29;20433;-78
2023/04/29 09:23:42;;;;;;;8.65;6.15;;;14.30;99.90;;;13.66;100.00;97325.16;4928316;29;20496;-77
2023/04/29 09:26:08;;;;;;;8.57;6.25;;;14.40;99.90;;;13.85;100.00;97326.94;4930470;29;20948;-77
2023/04/29 09:28:34;;;;;;;6.38;4.90;;;14.60;99.90;;;13.85;100.00;97318.16;4933717;29;20418;-77
2023/04/29 09:31:05;;;;;;;5.43;4.72;;;14.50;99.90;;;13.99;100.00;97329.00;4933646;29;20411;-76
2023/04/29 09:33:31;;;;;;;5.30;4.23;;;14.70;99.90;;;14.07;100.00;97328.44;4933812;29;20494;-76
2023/04/29 09:35:57;;;;;;;4.63;4.13;;;14.70;99.90;;;14.26;100.00;97332.06;4933784;29;20885;-77
2023/04/29 09:38:24;;;;;;;7.63;4.78;;;14.90;99.90;;;14.37;100.00;97332.78;4920718;29;20423;-76
2023/04/29 09:40:52;;;;;;;6.85;4.55;;;15.00;99.90;;;14.57;100.00;97330.03;4932309;29;20783;-75
2023/04/29 09:43:18;;;;;;;7.28;4.32;;;15.20;99.90;;;14.59;100.00;97330.53;4917533;29;20415;-75
2023/04/29 09:45:46;;;;;;;6.95;4.70;;;15.20;99.90;;;14.32;100.00;97342.41;4918552;29;20935;-75
2023/04/29 09:48:14;;;;;;;6.72;5.22;;;15.00;99.90;;;14.15;100.00;97347.28;4924489;29;20844;-76
2023/04/29 09:50:45;;;;;;;9.13;5.75;;;14.90;99.90;;;14.10;100.00;97350.00;4925244;29;20409;-76
2023/04/29 09:53:30;;;;;;;7.93;5.85;;;14.90;99.90;;;14.34;100.00;97342.94;4926509;29;20407;-76
2023/04/29 09:56:00;;;;;;;5.35;4.68;;;15.00;99.90;;;14.61;100.00;97331.84;4920527;29;21023;-76
2023/04/29 09:58:29;;;;;;;5.70;4.90;;;15.30;99.90;;;15.00;100.00;97345.13;4924557;29;20933;-76
2023/04/29 10:01:00;;;;;;;8.63;5.20;;;15.60;99.90;;;15.17;100.00;97333.25;4934709;29;20404;-78
2023/04/29 10:03:31;;;;;;;8.25;4.90;;;15.80;99.90;;;15.03;100.00;97333.13;4937315;29;20888;-76